Terminal Aerodrome Forecast
Issued by NWS

Home | Current Version | Previous Version | Text Only | Print | Product List | Glossary On
Versions: 1 2 3 4 5 6 7 8 9 10 11 12
000
FTUS42 KMLB 191100
TAFSUA
TAF
KSUA 191120Z 1912/2012 32003KT P6SM SCT250
     FM191500 36004KT P6SM SCT250
     FM191800 08007KT P6SM SCT100 BKN250=

USA.gov is the U.S. government's official web portal to all federal, state and local government web resources and services.